sensor_id;sensor_type;location;lat;lon;timestamp;P1;durP1;ratioP1;P2;durP2;ratioP2
14776;SDS011;7480;43.124;25.686;2022-08-20T00:00:12;4.32;;;2.83;;
14776;SDS011;7480;43.124;25.686;2022-08-20T00:02:41;4.68;;;3.60;;
14776;SDS011;7480;43.124;25.686;2022-08-20T00:05:08;4.70;;;3.23;;
14776;SDS011;7480;43.124;25.686;2022-08-20T00:07:35;5.73;;;3.80;;
14776;SDS011;7480;43.124;25.686;2022-08-20T00:10:02;3.97;;;3.20;;
14776;SDS011;7480;43.124;25.686;2022-08-20T00:12:31;4.23;;;3.40;;
14776;SDS011;7480;43.124;25.686;2022-08-20T00:15:00;4.63;;;3.80;;
14776;SDS011;7480;43.124;25.686;2022-08-20T00:17:26;4.60;;;3.50;;
14776;SDS011;7480;43.124;25.686;2022-08-20T00:19:59;5.33;;;4.33;;
14776;SDS011;7480;43.124;25.686;2022-08-20T00:22:25;7.50;;;3.77;;
14776;SDS011;7480;43.124;25.686;2022-08-20T00:24:53;4.17;;;3.43;;
14776;SDS011;7480;43.124;25.686;2022-08-20T00:27:19;4.40;;;3.60;;
14776;SDS011;7480;43.124;25.686;2022-08-20T00:29:46;4.53;;;4.10;;
14776;SDS011;7480;43.124;25.686;2022-08-20T00:32:13;3.97;;;3.43;;
14776;SDS011;7480;43.124;25.686;2022-08-20T00:34:39;7.67;;;3.63;;
14776;SDS011;7480;43.124;25.686;2022-08-20T00:37:07;5.27;;;3.73;;
14776;SDS011;7480;43.124;25.686;2022-08-20T00:39:34;5.20;;;3.93;;
14776;SDS011;7480;43.124;25.686;2022-08-20T00:42:01;3.93;;;3.43;;
14776;SDS011;7480;43.124;25.686;2022-08-20T00:44:28;4.07;;;3.23;;
14776;SDS011;7480;43.124;25.686;2022-08-20T00:46:55;3.80;;;3.23;;
14776;SDS011;7480;43.124;25.686;2022-08-20T00:49:23;4.30;;;3.77;;
14776;SDS011;7480;43.124;25.686;2022-08-20T00:51:56;4.83;;;3.57;;
14776;SDS011;7480;43.124;25.686;2022-08-20T00:54:33;4.07;;;3.20;;
14776;SDS011;7480;43.124;25.686;2022-08-20T00:57:02;3.77;;;3.10;;
14776;SDS011;7480;43.124;25.686;2022-08-20T00:59:30;5.17;;;3.90;;
14776;SDS011;7480;43.124;25.686;2022-08-20T01:01:57;3.90;;;3.27;;
14776;SDS011;7480;43.124;25.686;2022-08-20T01:04:25;5.17;;;3.77;;
14776;SDS011;7480;43.124;25.686;2022-08-20T01:06:53;3.40;;;3.10;;
14776;SDS011;7480;43.124;25.686;2022-08-20T01:09:20;4.07;;;3.40;;
14776;SDS011;7480;43.124;25.686;2022-08-20T01:12:06;3.93;;;3.23;;
14776;SDS011;7480;43.124;25.686;2022-08-20T01:14:33;4.17;;;3.20;;
14776;SDS011;7480;43.124;25.686;2022-08-20T01:17:05;5.30;;;3.33;;
14776;SDS011;7480;43.124;25.686;2022-08-20T01:19:37;4.87;;;4.17;;
14776;SDS011;7480;43.124;25.686;2022-08-20T01:22:04;5.10;;;3.80;;
14776;SDS011;7480;43.124;25.686;2022-08-20T01:24:53;4.97;;;4.30;;
14776;SDS011;7480;43.124;25.686;2022-08-20T01:27:26;6.18;;;4.30;;
14776;SDS011;7480;43.124;25.686;2022-08-20T01:29:56;5.90;;;4.23;;
14776;SDS011;7480;43.124;25.686;2022-08-20T01:32:22;5.03;;;4.10;;
14776;SDS011;7480;43.124;25.686;2022-08-20T01:34:49;7.70;;;4.30;;
14776;SDS011;7480;43.124;25.686;2022-08-20T01:37:16;5.53;;;4.20;;
14776;SDS011;7480;43.124;25.686;2022-08-20T01:39:42;4.93;;;3.97;;
14776;SDS011;7480;43.124;25.686;2022-08-20T01:44:43;5.00;;;4.50;;
14776;SDS011;7480;43.124;25.686;2022-08-20T01:47:26;8.13;;;5.20;;
14776;SDS011;7480;43.124;25.686;2022-08-20T01:49:54;11.43;;;5.40;;
14776;SDS011;7480;43.124;25.686;2022-08-20T01:54:54;7.30;;;5.27;;
14776;SDS011;7480;43.124;25.686;2022-08-20T01:57:22;5.57;;;4.00;;
14776;SDS011;7480;43.124;25.686;2022-08-20T01:59:51;6.50;;;4.57;;
14776;SDS011;7480;43.124;25.686;2022-08-20T02:02:18;8.40;;;4.90;;
14776;SDS011;7480;43.124;25.686;2022-08-20T02:04:45;5.20;;;4.10;;
14776;SDS011;7480;43.124;25.686;2022-08-20T02:07:13;5.57;;;4.27;;
14776;SDS011;7480;43.124;25.686;2022-08-20T02:09:40;6.93;;;4.57;;
14776;SDS011;7480;43.124;25.686;2022-08-20T02:12:08;7.00;;;4.70;;
14776;SDS011;7480;43.124;25.686;2022-08-20T02:14:38;8.27;;;4.83;;
14776;SDS011;7480;43.124;25.686;2022-08-20T02:17:04;4.87;;;4.17;;
14776;SDS011;7480;43.124;25.686;2022-08-20T02:19:33;4.83;;;4.33;;
14776;SDS011;7480;43.124;25.686;2022-08-20T02:22:02;6.87;;;4.73;;
14776;SDS011;7480;43.124;25.686;2022-08-20T02:24:29;6.77;;;4.63;;
14776;SDS011;7480;43.124;25.686;2022-08-20T02:26:56;5.20;;;3.97;;
14776;SDS011;7480;43.124;25.686;2022-08-20T02:29:22;5.63;;;4.33;;
14776;SDS011;7480;43.124;25.686;2022-08-20T02:31:49;6.07;;;3.93;;
14776;SDS011;7480;43.124;25.686;2022-08-20T02:34:36;5.67;;;4.20;;
14776;SDS011;7480;43.124;25.686;2022-08-20T02:37:03;4.60;;;3.77;;
14776;SDS011;7480;43.124;25.686;2022-08-20T02:39:30;5.33;;;4.10;;
14776;SDS011;7480;43.124;25.686;2022-08-20T02:41:57;5.07;;;4.27;;
14776;SDS011;7480;43.124;25.686;2022-08-20T02:44:23;4.57;;;3.87;;
14776;SDS011;7480;43.124;25.686;2022-08-20T02:46:50;4.67;;;4.07;;
14776;SDS011;7480;43.124;25.686;2022-08-20T02:49:17;4.40;;;3.90;;
14776;SDS011;7480;43.124;25.686;2022-08-20T02:51:43;11.13;;;4.00;;
14776;SDS011;7480;43.124;25.686;2022-08-20T02:54:11;6.07;;;4.63;;
14776;SDS011;7480;43.124;25.686;2022-08-20T02:56:37;5.00;;;4.23;;
14776;SDS011;7480;43.124;25.686;2022-08-20T02:59:05;4.60;;;3.90;;
14776;SDS011;7480;43.124;25.686;2022-08-20T03:01:31;4.27;;;3.83;;
14776;SDS011;7480;43.124;25.686;2022-08-20T03:03:58;4.30;;;3.80;;
14776;SDS011;7480;43.124;25.686;2022-08-20T03:06:25;5.83;;;4.37;;
14776;SDS011;7480;43.124;25.686;2022-08-20T03:08:52;5.60;;;4.20;;
14776;SDS011;7480;43.124;25.686;2022-08-20T03:11:18;5.13;;;4.10;;
14776;SDS011;7480;43.124;25.686;2022-08-20T03:13:45;5.10;;;3.57;;
14776;SDS011;7480;43.124;25.686;2022-08-20T03:16:12;5.53;;;3.70;;
14776;SDS011;7480;43.124;25.686;2022-08-20T03:18:40;5.13;;;4.37;;
14776;SDS011;7480;43.124;25.686;2022-08-20T03:21:07;5.93;;;4.37;;
14776;SDS011;7480;43.124;25.686;2022-08-20T03:23:35;4.77;;;3.70;;
14776;SDS011;7480;43.124;25.686;2022-08-20T03:26:07;6.00;;;4.47;;
14776;SDS011;7480;43.124;25.686;2022-08-20T03:28:33;7.03;;;4.40;;
14776;SDS011;7480;43.124;25.686;2022-08-20T03:31:00;4.83;;;4.13;;
14776;SDS011;7480;43.124;25.686;2022-08-20T03:33:27;4.87;;;3.67;;
14776;SDS011;7480;43.124;25.686;2022-08-20T03:35:53;5.70;;;4.13;;
14776;SDS011;7480;43.124;25.686;2022-08-20T03:38:20;7.33;;;4.77;;
14776;SDS011;7480;43.124;25.686;2022-08-20T03:40:58;5.60;;;4.23;;
14776;SDS011;7480;43.124;25.686;2022-08-20T03:43:26;11.10;;;5.50;;
14776;SDS011;7480;43.124;25.686;2022-08-20T03:45:52;5.40;;;4.90;;
14776;SDS011;7480;43.124;25.686;2022-08-20T03:48:19;7.57;;;4.37;;
14776;SDS011;7480;43.124;25.686;2022-08-20T03:50:46;8.43;;;4.60;;
14776;SDS011;7480;43.124;25.686;2022-08-20T03:53:14;5.33;;;4.33;;
14776;SDS011;7480;43.124;25.686;2022-08-20T03:55:41;5.87;;;4.07;;
14776;SDS011;7480;43.124;25.686;2022-08-20T03:58:10;9.43;;;4.57;;
14776;SDS011;7480;43.124;25.686;2022-08-20T04:00:40;6.67;;;4.37;;
14776;SDS011;7480;43.124;25.686;2022-08-20T04:03:07;4.37;;;3.93;;
14776;SDS011;7480;43.124;25.686;2022-08-20T04:05:34;5.67;;;4.67;;
14776;SDS011;7480;43.124;25.686;2022-08-20T04:08:14;5.97;;;4.10;;
14776;SDS011;7480;43.124;25.686;2022-08-20T04:10:41;7.07;;;4.63;;
14776;SDS011;7480;43.124;25.686;2022-08-20T04:13:09;5.30;;;4.03;;
14776;SDS011;7480;43.124;25.686;2022-08-20T04:15:36;5.93;;;4.37;;
14776;SDS011;7480;43.124;25.686;2022-08-20T04:18:07;5.33;;;4.27;;
14776;SDS011;7480;43.124;25.686;2022-08-20T04:20:35;8.93;;;4.40;;
14776;SDS011;7480;43.124;25.686;2022-08-20T04:23:03;4.40;;;4.00;;
14776;SDS011;7480;43.124;25.686;2022-08-20T04:25:30;5.57;;;4.13;;
14776;SDS011;7480;43.124;25.686;2022-08-20T04:28:04;5.77;;;4.10;;
14776;SDS011;7480;43.124;25.686;2022-08-20T04:30:31;5.65;;;4.30;;
14776;SDS011;7480;43.124;25.686;2022-08-20T04:32:58;8.02;;;4.55;;
14776;SDS011;7480;43.124;25.686;2022-08-20T04:35:25;4.70;;;4.20;;
14776;SDS011;7480;43.124;25.686;2022-08-20T04:38:02;9.30;;;4.30;;
14776;SDS011;7480;43.124;25.686;2022-08-20T04:40:29;4.90;;;4.20;;
14776;SDS011;7480;43.124;25.686;2022-08-20T04:43:14;5.43;;;4.35;;
14776;SDS011;7480;43.124;25.686;2022-08-20T04:45:41;6.28;;;4.13;;
14776;SDS011;7480;43.124;25.686;2022-08-20T04:48:07;6.22;;;3.67;;
14776;SDS011;7480;43.124;25.686;2022-08-20T04:50:41;5.53;;;4.45;;
14776;SDS011;7480;43.124;25.686;2022-08-20T04:53:10;4.47;;;4.00;;
14776;SDS011;7480;43.124;25.686;2022-08-20T04:55:37;5.97;;;4.05;;
14776;SDS011;7480;43.124;25.686;2022-08-20T04:58:11;5.43;;;4.38;;
14776;SDS011;7480;43.124;25.686;2022-08-20T05:00:38;5.68;;;4.22;;
14776;SDS011;7480;43.124;25.686;2022-08-20T05:03:08;4.50;;;4.10;;
14776;SDS011;7480;43.124;25.686;2022-08-20T05:05:34;5.22;;;4.53;;
14776;SDS011;7480;43.124;25.686;2022-08-20T05:08:01;6.43;;;4.53;;
14776;SDS011;7480;43.124;25.686;2022-08-20T05:10:28;5.35;;;4.85;;
14776;SDS011;7480;43.124;25.686;2022-08-20T05:12:54;7.07;;;5.20;;
14776;SDS011;7480;43.124;25.686;2022-08-20T05:15:22;6.35;;;5.00;;
14776;SDS011;7480;43.124;25.686;2022-08-20T05:17:53;7.68;;;5.30;;
14776;SDS011;7480;43.124;25.686;2022-08-20T05:20:20;7.20;;;5.10;;
14776;SDS011;7480;43.124;25.686;2022-08-20T05:22:47;6.25;;;5.47;;
14776;SDS011;7480;43.124;25.686;2022-08-20T05:25:13;5.93;;;4.82;;
14776;SDS011;7480;43.124;25.686;2022-08-20T05:27:40;4.95;;;4.45;;
14776;SDS011;7480;43.124;25.686;2022-08-20T05:30:13;5.30;;;4.57;;
14776;SDS011;7480;43.124;25.686;2022-08-20T05:32:40;4.63;;;4.00;;
14776;SDS011;7480;43.124;25.686;2022-08-20T05:35:09;4.93;;;4.35;;
14776;SDS011;7480;43.124;25.686;2022-08-20T05:37:37;4.70;;;4.10;;
14776;SDS011;7480;43.124;25.686;2022-08-20T05:40:08;6.13;;;4.05;;
14776;SDS011;7480;43.124;25.686;2022-08-20T05:42:35;5.78;;;3.92;;
14776;SDS011;7480;43.124;25.686;2022-08-20T05:45:03;4.55;;;3.92;;
14776;SDS011;7480;43.124;25.686;2022-08-20T05:47:39;4.65;;;4.13;;
14776;SDS011;7480;43.124;25.686;2022-08-20T05:50:09;5.10;;;3.63;;
14776;SDS011;7480;43.124;25.686;2022-08-20T05:52:45;5.43;;;3.72;;
14776;SDS011;7480;43.124;25.686;2022-08-20T05:55:12;4.45;;;3.95;;
14776;SDS011;7480;43.124;25.686;2022-08-20T05:57:39;4.13;;;3.80;;
14776;SDS011;7480;43.124;25.686;2022-08-20T06:00:07;4.40;;;3.78;;
14776;SDS011;7480;43.124;25.686;2022-08-20T06:02:34;4.80;;;3.85;;
14776;SDS011;7480;43.124;25.686;2022-08-20T06:05:19;4.60;;;3.85;;
14776;SDS011;7480;43.124;25.686;2022-08-20T06:07:45;3.72;;;3.40;;
14776;SDS011;7480;43.124;25.686;2022-08-20T06:10:12;4.32;;;3.58;;
14776;SDS011;7480;43.124;25.686;2022-08-20T06:12:39;9.35;;;3.78;;
14776;SDS011;7480;43.124;25.686;2022-08-20T06:15:05;4.05;;;3.60;;
14776;SDS011;7480;43.124;25.686;2022-08-20T06:17:32;3.72;;;2.97;;
14776;SDS011;7480;43.124;25.686;2022-08-20T06:20:05;5.63;;;4.53;;
14776;SDS011;7480;43.124;25.686;2022-08-20T06:22:33;6.20;;;4.13;;
14776;SDS011;7480;43.124;25.686;2022-08-20T06:24:59;7.28;;;3.80;;
14776;SDS011;7480;43.124;25.686;2022-08-20T06:27:26;6.60;;;3.92;;
14776;SDS011;7480;43.124;25.686;2022-08-20T06:29:53;5.28;;;3.83;;
14776;SDS011;7480;43.124;25.686;2022-08-20T06:32:20;4.93;;;4.00;;
14776;SDS011;7480;43.124;25.686;2022-08-20T06:34:58;4.78;;;3.20;;
14776;SDS011;7480;43.124;25.686;2022-08-20T06:37:28;4.35;;;3.75;;
14776;SDS011;7480;43.124;25.686;2022-08-20T06:40:04;5.82;;;3.67;;
14776;SDS011;7480;43.124;25.686;2022-08-20T06:42:32;4.60;;;4.10;;
14776;SDS011;7480;43.124;25.686;2022-08-20T06:44:58;5.43;;;3.50;;
14776;SDS011;7480;43.124;25.686;2022-08-20T06:47:25;4.28;;;3.78;;
14776;SDS011;7480;43.124;25.686;2022-08-20T06:49:52;3.83;;;2.97;;
14776;SDS011;7480;43.124;25.686;2022-08-20T06:52:22;6.18;;;3.60;;
14776;SDS011;7480;43.124;25.686;2022-08-20T06:55:09;3.63;;;3.28;;
14776;SDS011;7480;43.124;25.686;2022-08-20T06:57:36;5.70;;;3.88;;
14776;SDS011;7480;43.124;25.686;2022-08-20T07:00:06;3.65;;;3.22;;
14776;SDS011;7480;43.124;25.686;2022-08-20T07:02:33;3.60;;;3.25;;
14776;SDS011;7480;43.124;25.686;2022-08-20T07:05:01;3.97;;;3.40;;
14776;SDS011;7480;43.124;25.686;2022-08-20T07:07:30;4.00;;;3.17;;
14776;SDS011;7480;43.124;25.686;2022-08-20T07:10:00;3.28;;;2.97;;
14776;SDS011;7480;43.124;25.686;2022-08-20T07:12:27;3.85;;;3.05;;
14776;SDS011;7480;43.124;25.686;2022-08-20T07:14:53;5.20;;;2.88;;
14776;SDS011;7480;43.124;25.686;2022-08-20T07:17:20;3.90;;;3.50;;
14776;SDS011;7480;43.124;25.686;2022-08-20T07:19:49;5.63;;;2.78;;
14776;SDS011;7480;43.124;25.686;2022-08-20T07:22:15;4.03;;;2.90;;
14776;SDS011;7480;43.124;25.686;2022-08-20T07:24:42;3.28;;;2.70;;
14776;SDS011;7480;43.124;25.686;2022-08-20T07:27:14;4.25;;;2.60;;
14776;SDS011;7480;43.124;25.686;2022-08-20T07:29:44;4.78;;;3.10;;
14776;SDS011;7480;43.124;25.686;2022-08-20T07:32:29;3.85;;;2.70;;
14776;SDS011;7480;43.124;25.686;2022-08-20T07:35:09;2.63;;;2.38;;
14776;SDS011;7480;43.124;25.686;2022-08-20T07:37:40;3.55;;;2.70;;
14776;SDS011;7480;43.124;25.686;2022-08-20T07:40:08;2.80;;;2.60;;
14776;SDS011;7480;43.124;25.686;2022-08-20T07:42:36;3.80;;;3.15;;
14776;SDS011;7480;43.124;25.686;2022-08-20T07:45:08;3.72;;;2.85;;
14776;SDS011;7480;43.124;25.686;2022-08-20T07:47:39;3.30;;;2.67;;
14776;SDS011;7480;43.124;25.686;2022-08-20T07:50:08;4.07;;;2.95;;
14776;SDS011;7480;43.124;25.686;2022-08-20T07:52:35;5.22;;;2.42;;
14776;SDS011;7480;43.124;25.686;2022-08-20T07:55:02;3.80;;;3.40;;
14776;SDS011;7480;43.124;25.686;2022-08-20T07:57:29;2.92;;;2.60;;
14776;SDS011;7480;43.124;25.686;2022-08-20T07:59:56;4.28;;;2.50;;
14776;SDS011;7480;43.124;25.686;2022-08-20T08:02:27;2.88;;;2.45;;
14776;SDS011;7480;43.124;25.686;2022-08-20T08:04:53;2.50;;;2.30;;
14776;SDS011;7480;43.124;25.686;2022-08-20T08:07:20;3.05;;;2.75;;
14776;SDS011;7480;43.124;25.686;2022-08-20T08:09:47;3.83;;;2.90;;
14776;SDS011;7480;43.124;25.686;2022-08-20T08:12:14;2.80;;;2.60;;
14776;SDS011;7480;43.124;25.686;2022-08-20T08:14:41;6.10;;;2.90;;
14776;SDS011;7480;43.124;25.686;2022-08-20T08:17:10;3.72;;;3.00;;
14776;SDS011;7480;43.124;25.686;2022-08-20T08:19:38;2.75;;;2.50;;
14776;SDS011;7480;43.124;25.686;2022-08-20T08:22:07;2.83;;;2.53;;
14776;SDS011;7480;43.124;25.686;2022-08-20T08:24:37;4.15;;;2.80;;
14776;SDS011;7480;43.124;25.686;2022-08-20T08:27:03;5.15;;;2.63;;
14776;SDS011;7480;43.124;25.686;2022-08-20T08:29:30;4.03;;;2.83;;
14776;SDS011;7480;43.124;25.686;2022-08-20T08:31:56;3.13;;;2.83;;
14776;SDS011;7480;43.124;25.686;2022-08-20T08:34:25;2.65;;;2.45;;
14776;SDS011;7480;43.124;25.686;2022-08-20T08:36:52;2.50;;;2.30;;
14776;SDS011;7480;43.124;25.686;2022-08-20T08:39:21;2.55;;;2.35;;
14776;SDS011;7480;43.124;25.686;2022-08-20T08:41:48;3.28;;;2.97;;
14776;SDS011;7480;43.124;25.686;2022-08-20T08:44:25;4.28;;;2.58;;
14776;SDS011;7480;43.124;25.686;2022-08-20T08:46:57;4.18;;;2.50;;
14776;SDS011;7480;43.124;25.686;2022-08-20T08:49:28;2.58;;;2.38;;
14776;SDS011;7480;43.124;25.686;2022-08-20T08:52:46;3.15;;;2.42;;
14776;SDS011;7480;43.124;25.686;2022-08-20T08:54:54;3.00;;;2.47;;
14776;SDS011;7480;43.124;25.686;2022-08-20T08:57:21;2.75;;;2.50;;
14776;SDS011;7480;43.124;25.686;2022-08-20T08:59:54;2.80;;;2.47;;
14776;SDS011;7480;43.124;25.686;2022-08-20T09:02:30;4.15;;;2.67;;
14776;SDS011;7480;43.124;25.686;2022-08-20T09:04:59;3.03;;;2.70;;
14776;SDS011;7480;43.124;25.686;2022-08-20T09:07:29;2.65;;;2.30;;
14776;SDS011;7480;43.124;25.686;2022-08-20T09:09:56;3.33;;;2.90;;
14776;SDS011;7480;43.124;25.686;2022-08-20T09:12:23;2.85;;;2.50;;
14776;SDS011;7480;43.124;25.686;2022-08-20T09:14:53;3.80;;;2.67;;
14776;SDS011;7480;43.124;25.686;2022-08-20T09:17:20;2.92;;;2.65;;
14776;SDS011;7480;43.124;25.686;2022-08-20T09:19:47;2.80;;;2.55;;
14776;SDS011;7480;43.124;25.686;2022-08-20T09:22:18;5.35;;;2.40;;
14776;SDS011;7480;43.124;25.686;2022-08-20T09:24:44;3.22;;;2.65;;
14776;SDS011;7480;43.124;25.686;2022-08-20T09:27:11;3.70;;;2.40;;
14776;SDS011;7480;43.124;25.686;2022-08-20T09:29:38;2.80;;;2.50;;
14776;SDS011;7480;43.124;25.686;2022-08-20T09:32:26;3.20;;;2.90;;
14776;SDS011;7480;43.124;25.686;2022-08-20T09:34:52;2.47;;;2.27;;
14776;SDS011;7480;43.124;25.686;2022-08-20T09:37:24;4.20;;;2.88;;
14776;SDS011;7480;43.124;25.686;2022-08-20T09:39:51;2.40;;;2.20;;
14776;SDS011;7480;43.124;25.686;2022-08-20T09:42:19;4.15;;;3.08;;
14776;SDS011;7480;43.124;25.686;2022-08-20T09:44:45;4.50;;;2.83;;
14776;SDS011;7480;43.124;25.686;2022-08-20T09:47:12;2.92;;;2.30;;
14776;SDS011;7480;43.124;25.686;2022-08-20T09:49:39;3.97;;;2.67;;
14776;SDS011;7480;43.124;25.686;2022-08-20T09:52:07;3.00;;;2.70;;
14776;SDS011;7480;43.124;25.686;2022-08-20T09:54:34;2.70;;;2.50;;
14776;SDS011;7480;43.124;25.686;2022-08-20T09:57:02;2.60;;;2.40;;
14776;SDS011;7480;43.124;25.686;2022-08-20T09:59:30;7.45;;;2.88;;
14776;SDS011;7480;43.124;25.686;2022-08-20T10:01:57;4.18;;;2.70;;
14776;SDS011;7480;43.124;25.686;2022-08-20T10:04:24;3.40;;;2.80;;
14776;SDS011;7480;43.124;25.686;2022-08-20T10:06:51;3.67;;;3.03;;
14776;SDS011;7480;43.124;25.686;2022-08-20T10:09:17;4.90;;;2.85;;
14776;SDS011;7480;43.124;25.686;2022-08-20T10:11:44;2.83;;;2.38;;
14776;SDS011;7480;43.124;25.686;2022-08-20T10:14:10;3.75;;;2.92;;
14776;SDS011;7480;43.124;25.686;2022-08-20T10:16:37;2.75;;;2.53;;
14776;SDS011;7480;43.124;25.686;2022-08-20T10:19:04;2.83;;;2.63;;
14776;SDS011;7480;43.124;25.686;2022-08-20T10:21:31;3.72;;;2.63;;
14776;SDS011;7480;43.124;25.686;2022-08-20T10:24:03;3.40;;;2.67;;
14776;SDS011;7480;43.124;25.686;2022-08-20T10:26:30;3.33;;;2.85;;
14776;SDS011;7480;43.124;25.686;2022-08-20T10:28:56;3.00;;;2.70;;
14776;SDS011;7480;43.124;25.686;2022-08-20T10:31:23;2.70;;;2.38;;
14776;SDS011;7480;43.124;25.686;2022-08-20T10:33:49;2.78;;;2.53;;
14776;SDS011;7480;43.124;25.686;2022-08-20T10:36:16;3.95;;;2.65;;
14776;SDS011;7480;43.124;25.686;2022-08-20T10:38:43;3.00;;;2.58;;
14776;SDS011;7480;43.124;25.686;2022-08-20T10:41:10;3.53;;;2.80;;
14776;SDS011;7480;43.124;25.686;2022-08-20T10:43:36;3.75;;;2.58;;
14776;SDS011;7480;43.124;25.686;2022-08-20T10:46:03;2.50;;;2.30;;
14776;SDS011;7480;43.124;25.686;2022-08-20T10:48:29;3.13;;;2.70;;
14776;SDS011;7480;43.124;25.686;2022-08-20T10:50:56;3.55;;;2.80;;
14776;SDS011;7480;43.124;25.686;2022-08-20T10:53:29;3.22;;;2.48;;
14776;SDS011;7480;43.124;25.686;2022-08-20T10:55:56;3.35;;;2.90;;
14776;SDS011;7480;43.124;25.686;2022-08-20T10:58:23;3.10;;;2.58;;
14776;SDS011;7480;43.124;25.686;2022-08-20T11:00:50;3.22;;;2.80;;
14776;SDS011;7480;43.124;25.686;2022-08-20T11:03:17;3.40;;;2.65;;
14776;SDS011;7480;43.124;25.686;2022-08-20T11:05:45;4.28;;;3.08;;
14776;SDS011;7480;43.124;25.686;2022-08-20T11:08:11;4.10;;;2.65;;
14776;SDS011;7480;43.124;25.686;2022-08-20T11:10:38;3.35;;;3.05;;
14776;SDS011;7480;43.124;25.686;2022-08-20T11:13:06;3.35;;;3.05;;
14776;SDS011;7480;43.124;25.686;2022-08-20T11:15:37;3.30;;;2.92;;
14776;SDS011;7480;43.124;25.686;2022-08-20T11:18:05;4.25;;;2.67;;
14776;SDS011;7480;43.124;25.686;2022-08-20T11:20:32;3.38;;;2.80;;
14776;SDS011;7480;43.124;25.686;2022-08-20T11:22:58;4.00;;;2.70;;
14776;SDS011;7480;43.124;25.686;2022-08-20T11:25:25;3.60;;;3.00;;
14776;SDS011;7480;43.124;25.686;2022-08-20T11:27:54;3.70;;;3.28;;
14776;SDS011;7480;43.124;25.686;2022-08-20T11:30:23;3.20;;;2.75;;
14776;SDS011;7480;43.124;25.686;2022-08-20T11:32:50;3.88;;;2.90;;
14776;SDS011;7480;43.124;25.686;2022-08-20T11:35:16;3.25;;;2.90;;
14776;SDS011;7480;43.124;25.686;2022-08-20T11:38:04;3.40;;;3.08;;
14776;SDS011;7480;43.124;25.686;2022-08-20T11:40:31;3.55;;;3.25;;
14776;SDS011;7480;43.124;25.686;2022-08-20T11:42:58;3.20;;;2.90;;
14776;SDS011;7480;43.124;25.686;2022-08-20T11:45:40;2.72;;;2.42;;
14776;SDS011;7480;43.124;25.686;2022-08-20T11:48:07;3.13;;;2.83;;
14776;SDS011;7480;43.124;25.686;2022-08-20T11:50:33;3.17;;;2.88;;
14776;SDS011;7480;43.124;25.686;2022-08-20T11:53:00;2.90;;;2.60;;
14776;SDS011;7480;43.124;25.686;2022-08-20T11:55:27;3.72;;;3.05;;
14776;SDS011;7480;43.124;25.686;2022-08-20T11:57:55;3.13;;;2.58;;
14776;SDS011;7480;43.124;25.686;2022-08-20T12:00:26;4.70;;;2.80;;
14776;SDS011;7480;43.124;25.686;2022-08-20T12:02:59;3.08;;;2.65;;
14776;SDS011;7480;43.124;25.686;2022-08-20T12:05:26;3.03;;;2.55;;
14776;SDS011;7480;43.124;25.686;2022-08-20T12:07:55;3.15;;;2.80;;
14776;SDS011;7480;43.124;25.686;2022-08-20T12:10:21;3.30;;;3.00;;
14776;SDS011;7480;43.124;25.686;2022-08-20T12:12:49;2.78;;;2.47;;
14776;SDS011;7480;43.124;25.686;2022-08-20T12:15:16;3.60;;;3.28;;
14776;SDS011;7480;43.124;25.686;2022-08-20T12:17:42;3.67;;;2.80;;
14776;SDS011;7480;43.124;25.686;2022-08-20T12:20:10;3.22;;;2.33;;
14776;SDS011;7480;43.124;25.686;2022-08-20T12:22:37;2.97;;;2.50;;
14776;SDS011;7480;43.124;25.686;2022-08-20T12:25:04;3.72;;;2.70;;
14776;SDS011;7480;43.124;25.686;2022-08-20T12:27:32;3.05;;;2.30;;
14776;SDS011;7480;43.124;25.686;2022-08-20T12:30:00;3.20;;;2.83;;
14776;SDS011;7480;43.124;25.686;2022-08-20T12:32:27;3.28;;;2.97;;
14776;SDS011;7480;43.124;25.686;2022-08-20T12:34:54;3.00;;;2.70;;
14776;SDS011;7480;43.124;25.686;2022-08-20T12:37:22;2.85;;;2.65;;
14776;SDS011;7480;43.124;25.686;2022-08-20T12:39:50;3.85;;;3.20;;
14776;SDS011;7480;43.124;25.686;2022-08-20T12:42:17;3.65;;;2.70;;
14776;SDS011;7480;43.124;25.686;2022-08-20T12:44:43;3.90;;;3.17;;
14776;SDS011;7480;43.124;25.686;2022-08-20T12:47:17;3.00;;;2.67;;
14776;SDS011;7480;43.124;25.686;2022-08-20T12:49:45;4.53;;;3.42;;
14776;SDS011;7480;43.124;25.686;2022-08-20T12:52:13;3.88;;;3.17;;
14776;SDS011;7480;43.124;25.686;2022-08-20T12:54:39;2.97;;;2.67;;
14776;SDS011;7480;43.124;25.686;2022-08-20T12:57:11;4.25;;;3.03;;
14776;SDS011;7480;43.124;25.686;2022-08-20T12:59:38;5.13;;;2.92;;
14776;SDS011;7480;43.124;25.686;2022-08-20T13:02:04;3.58;;;3.28;;
14776;SDS011;7480;43.124;25.686;2022-08-20T13:04:44;3.60;;;3.22;;
14776;SDS011;7480;43.124;25.686;2022-08-20T13:07:11;3.53;;;2.90;;
14776;SDS011;7480;43.124;25.686;2022-08-20T13:09:38;4.28;;;2.88;;
14776;SDS011;7480;43.124;25.686;2022-08-20T13:12:05;4.28;;;2.80;;
14776;SDS011;7480;43.124;25.686;2022-08-20T13:14:32;3.42;;;2.75;;
14776;SDS011;7480;43.124;25.686;2022-08-20T13:16:59;3.22;;;2.88;;
14776;SDS011;7480;43.124;25.686;2022-08-20T13:19:27;3.30;;;3.00;;
14776;SDS011;7480;43.124;25.686;2022-08-20T13:21:54;4.28;;;3.22;;
14776;SDS011;7480;43.124;25.686;2022-08-20T13:24:21;3.63;;;3.03;;
14776;SDS011;7480;43.124;25.686;2022-08-20T13:26:48;2.80;;;2.60;;
14776;SDS011;7480;43.124;25.686;2022-08-20T13:29:15;4.22;;;3.50;;
14776;SDS011;7480;43.124;25.686;2022-08-20T13:31:41;3.33;;;2.72;;
14776;SDS011;7480;43.124;25.686;2022-08-20T13:34:08;2.88;;;2.60;;
14776;SDS011;7480;43.124;25.686;2022-08-20T13:36:35;3.95;;;3.08;;
14776;SDS011;7480;43.124;25.686;2022-08-20T13:39:02;2.85;;;2.55;;
14776;SDS011;7480;43.124;25.686;2022-08-20T13:41:29;4.13;;;3.05;;
14776;SDS011;7480;43.124;25.686;2022-08-20T13:43:56;3.33;;;3.00;;
14776;SDS011;7480;43.124;25.686;2022-08-20T13:46:22;3.22;;;2.90;;
14776;SDS011;7480;43.124;25.686;2022-08-20T13:48:49;2.92;;;2.60;;
14776;SDS011;7480;43.124;25.686;2022-08-20T13:51:15;3.97;;;2.78;;
14776;SDS011;7480;43.124;25.686;2022-08-20T13:53:44;5.63;;;3.05;;
14776;SDS011;7480;43.124;25.686;2022-08-20T13:56:11;3.30;;;2.67;;
14776;SDS011;7480;43.124;25.686;2022-08-20T13:58:38;3.78;;;3.10;;
14776;SDS011;7480;43.124;25.686;2022-08-20T14:01:05;3.72;;;3.15;;
14776;SDS011;7480;43.124;25.686;2022-08-20T14:03:31;5.13;;;3.13;;
14776;SDS011;7480;43.124;25.686;2022-08-20T14:06:00;7.07;;;2.85;;
14776;SDS011;7480;43.124;25.686;2022-08-20T14:08:27;3.22;;;2.85;;
14776;SDS011;7480;43.124;25.686;2022-08-20T14:10:54;5.60;;;2.67;;
14776;SDS011;7480;43.124;25.686;2022-08-20T14:13:23;3.10;;;2.78;;
14776;SDS011;7480;43.124;25.686;2022-08-20T14:15:50;3.42;;;2.60;;
14776;SDS011;7480;43.124;25.686;2022-08-20T14:18:17;6.47;;;3.00;;
14776;SDS011;7480;43.124;25.686;2022-08-20T14:20:44;3.20;;;2.90;;
14776;SDS011;7480;43.124;25.686;2022-08-20T14:23:11;3.67;;;2.72;;
14776;SDS011;7480;43.124;25.686;2022-08-20T14:25:37;2.53;;;2.33;;
14776;SDS011;7480;43.124;25.686;2022-08-20T14:28:08;3.88;;;2.92;;
14776;SDS011;7480;43.124;25.686;2022-08-20T14:30:35;2.85;;;2.63;;
14776;SDS011;7480;43.124;25.686;2022-08-20T14:33:02;4.75;;;2.92;;
14776;SDS011;7480;43.124;25.686;2022-08-20T14:35:28;2.72;;;2.50;;
14776;SDS011;7480;43.124;25.686;2022-08-20T14:37:55;2.95;;;2.65;;
14776;SDS011;7480;43.124;25.686;2022-08-20T14:40:23;3.47;;;2.55;;
14776;SDS011;7480;43.124;25.686;2022-08-20T14:42:50;4.22;;;2.45;;
14776;SDS011;7480;43.124;25.686;2022-08-20T14:45:20;3.22;;;2.78;;
14776;SDS011;7480;43.124;25.686;2022-08-20T14:47:53;4.38;;;2.72;;
14776;SDS011;7480;43.124;25.686;2022-08-20T14:50:26;2.85;;;2.55;;
14776;SDS011;7480;43.124;25.686;2022-08-20T14:52:53;3.50;;;2.60;;
14776;SDS011;7480;43.124;25.686;2022-08-20T14:55:21;2.50;;;2.30;;
14776;SDS011;7480;43.124;25.686;2022-08-20T14:57:48;3.90;;;2.67;;
14776;SDS011;7480;43.124;25.686;2022-08-20T15:00:26;3.30;;;2.50;;